sensor_id;sensor_type;location;lat;lon;timestamp;temperature;humidity
13496;DHT22;6820;49.374;8.452;2024-02-26T00:02:16;9.88;99.99
13496;DHT22;6820;49.374;8.452;2024-02-26T00:06:17;9.86;99.99
13496;DHT22;6820;49.374;8.452;2024-02-26T00:10:19;9.86;99.99
13496;DHT22;6820;49.374;8.452;2024-02-26T00:14:21;9.85;99.99
13496;DHT22;6820;49.374;8.452;2024-02-26T00:18:23;9.85;99.99
13496;DHT22;6820;49.374;8.452;2024-02-26T00:22:25;9.80;99.99
13496;DHT22;6820;49.374;8.452;2024-02-26T00:26:26;9.80;99.99
13496;DHT22;6820;49.374;8.452;2024-02-26T00:30:28;9.77;99.99
13496;DHT22;6820;49.374;8.452;2024-02-26T00:34:29;9.77;99.99
13496;DHT22;6820;49.374;8.452;2024-02-26T00:38:32;9.77;99.99
13496;DHT22;6820;49.374;8.452;2024-02-26T00:42:34;9.73;99.99
13496;DHT22;6820;49.374;8.452;2024-02-26T00:46:36;9.68;99.99
13496;DHT22;6820;49.374;8.452;2024-02-26T00:50:37;9.65;99.99
13496;DHT22;6820;49.374;8.452;2024-02-26T00:54:39;9.60;99.99
13496;DHT22;6820;49.374;8.452;2024-02-26T00:58:41;9.58;99.99
13496;DHT22;6820;49.374;8.452;2024-02-26T01:02:42;9.55;99.99
13496;DHT22;6820;49.374;8.452;2024-02-26T01:06:44;9.52;99.99
13496;DHT22;6820;49.374;8.452;2024-02-26T01:10:46;9.49;99.99
13496;DHT22;6820;49.374;8.452;2024-02-26T01:14:48;9.50;99.99
13496;DHT22;6820;49.374;8.452;2024-02-26T01:18:50;9.50;99.99
13496;DHT22;6820;49.374;8.452;2024-02-26T01:22:51;9.49;99.99
13496;DHT22;6820;49.374;8.452;2024-02-26T01:26:53;9.48;99.99
13496;DHT22;6820;49.374;8.452;2024-02-26T01:30:55;9.45;99.99
13496;DHT22;6820;49.374;8.452;2024-02-26T01:34:57;9.44;99.99
13496;DHT22;6820;49.374;8.452;2024-02-26T01:38:58;9.42;99.99
13496;DHT22;6820;49.374;8.452;2024-02-26T01:43:01;9.42;99.99
13496;DHT22;6820;49.374;8.452;2024-02-26T01:47:03;9.40;99.99
13496;DHT22;6820;49.374;8.452;2024-02-26T01:51:06;9.38;99.99
13496;DHT22;6820;49.374;8.452;2024-02-26T01:55:09;9.37;99.99
13496;DHT22;6820;49.374;8.452;2024-02-26T01:59:11;9.35;99.99
13496;DHT22;6820;49.374;8.452;2024-02-26T02:03:12;9.34;99.99
13496;DHT22;6820;49.374;8.452;2024-02-26T02:07:14;9.32;99.99
13496;DHT22;6820;49.374;8.452;2024-02-26T02:11:17;9.31;99.99
13496;DHT22;6820;49.374;8.452;2024-02-26T02:15:18;9.27;99.99
13496;DHT22;6820;49.374;8.452;2024-02-26T02:19:21;9.30;99.99
13496;DHT22;6820;49.374;8.452;2024-02-26T02:23:23;9.30;99.99
13496;DHT22;6820;49.374;8.452;2024-02-26T02:27:24;9.26;99.99
13496;DHT22;6820;49.374;8.452;2024-02-26T02:31:27;9.26;99.99
13496;DHT22;6820;49.374;8.452;2024-02-26T02:35:29;9.22;99.99
13496;DHT22;6820;49.374;8.452;2024-02-26T02:39:30;9.26;99.99
13496;DHT22;6820;49.374;8.452;2024-02-26T02:43:32;9.27;99.99
13496;DHT22;6820;49.374;8.452;2024-02-26T02:47:37;9.30;99.99
13496;DHT22;6820;49.374;8.452;2024-02-26T02:51:41;9.31;99.99
13496;DHT22;6820;49.374;8.452;2024-02-26T02:55:43;9.31;99.99
13496;DHT22;6820;49.374;8.452;2024-02-26T02:59:44;9.31;99.99
13496;DHT22;6820;49.374;8.452;2024-02-26T03:03:47;9.31;99.99
13496;DHT22;6820;49.374;8.452;2024-02-26T03:07:48;9.34;99.99
13496;DHT22;6820;49.374;8.452;2024-02-26T03:11:50;9.32;99.99
13496;DHT22;6820;49.374;8.452;2024-02-26T03:15:51;9.32;99.99
13496;DHT22;6820;49.374;8.452;2024-02-26T03:19:53;9.30;99.99
13496;DHT22;6820;49.374;8.452;2024-02-26T03:23:55;9.24;99.99
13496;DHT22;6820;49.374;8.452;2024-02-26T03:27:58;9.23;99.99
13496;DHT22;6820;49.374;8.452;2024-02-26T03:32:00;9.22;99.99
13496;DHT22;6820;49.374;8.452;2024-02-26T03:36:02;9.15;99.99
13496;DHT22;6820;49.374;8.452;2024-02-26T03:40:04;9.12;99.99
13496;DHT22;6820;49.374;8.452;2024-02-26T03:44:06;9.08;99.99
13496;DHT22;6820;49.374;8.452;2024-02-26T03:48:07;9.03;99.99
13496;DHT22;6820;49.374;8.452;2024-02-26T03:52:09;8.98;99.99
13496;DHT22;6820;49.374;8.452;2024-02-26T03:56:11;8.96;99.99
13496;DHT22;6820;49.374;8.452;2024-02-26T04:00:15;8.94;99.99
13496;DHT22;6820;49.374;8.452;2024-02-26T04:04:16;8.91;99.99
13496;DHT22;6820;49.374;8.452;2024-02-26T04:08:18;8.85;99.99
13496;DHT22;6820;49.374;8.452;2024-02-26T04:12:20;8.83;99.99
13496;DHT22;6820;49.374;8.452;2024-02-26T04:16:22;8.82;99.99
13496;DHT22;6820;49.374;8.452;2024-02-26T04:20:23;8.80;99.99
13496;DHT22;6820;49.374;8.452;2024-02-26T04:24:25;8.79;99.99
13496;DHT22;6820;49.374;8.452;2024-02-26T04:28:26;8.78;99.99
13496;DHT22;6820;49.374;8.452;2024-02-26T04:32:30;8.79;99.99
13496;DHT22;6820;49.374;8.452;2024-02-26T04:36:32;8.78;99.99
13496;DHT22;6820;49.374;8.452;2024-02-26T04:40:34;8.78;99.99
13496;DHT22;6820;49.374;8.452;2024-02-26T04:44:35;8.76;99.99
13496;DHT22;6820;49.374;8.452;2024-02-26T04:48:37;8.76;99.99
13496;DHT22;6820;49.374;8.452;2024-02-26T04:52:40;8.76;99.99
13496;DHT22;6820;49.374;8.452;2024-02-26T04:56:42;8.78;99.99
13496;DHT22;6820;49.374;8.452;2024-02-26T05:00:44;8.78;99.99
13496;DHT22;6820;49.374;8.452;2024-02-26T05:04:46;8.75;99.99
13496;DHT22;6820;49.374;8.452;2024-02-26T05:08:47;8.78;99.99
13496;DHT22;6820;49.374;8.452;2024-02-26T05:12:49;8.78;99.99
13496;DHT22;6820;49.374;8.452;2024-02-26T05:16:51;8.76;99.99
13496;DHT22;6820;49.374;8.452;2024-02-26T05:20:52;8.76;99.99
13496;DHT22;6820;49.374;8.452;2024-02-26T05:24:54;8.71;99.99
13496;DHT22;6820;49.374;8.452;2024-02-26T05:28:56;8.71;99.99
13496;DHT22;6820;49.374;8.452;2024-02-26T05:33:01;8.73;99.99
13496;DHT22;6820;49.374;8.452;2024-02-26T05:37:03;8.71;99.99
13496;DHT22;6820;49.374;8.452;2024-02-26T05:41:04;8.71;99.99
13496;DHT22;6820;49.374;8.452;2024-02-26T05:45:07;8.73;99.99
13496;DHT22;6820;49.374;8.452;2024-02-26T05:49:09;8.73;99.99
13496;DHT22;6820;49.374;8.452;2024-02-26T05:53:11;8.73;99.99
13496;DHT22;6820;49.374;8.452;2024-02-26T05:57:13;8.73;99.99
13496;DHT22;6820;49.374;8.452;2024-02-26T06:01:15;8.73;99.99
13496;DHT22;6820;49.374;8.452;2024-02-26T06:05:18;8.70;99.99
13496;DHT22;6820;49.374;8.452;2024-02-26T06:09:19;8.68;99.99
13496;DHT22;6820;49.374;8.452;2024-02-26T06:13:21;8.67;99.99
13496;DHT22;6820;49.374;8.452;2024-02-26T06:17:23;8.63;99.99
13496;DHT22;6820;49.374;8.452;2024-02-26T06:21:24;8.57;99.99
13496;DHT22;6820;49.374;8.452;2024-02-26T06:25:26;8.47;99.99
13496;DHT22;6820;49.374;8.452;2024-02-26T06:29:28;8.43;99.99
13496;DHT22;6820;49.374;8.452;2024-02-26T06:33:30;8.42;99.99
13496;DHT22;6820;49.374;8.452;2024-02-26T06:37:32;8.37;99.99
13496;DHT22;6820;49.374;8.452;2024-02-26T06:41:34;8.36;99.99
13496;DHT22;6820;49.374;8.452;2024-02-26T06:45:37;8.32;99.99
13496;DHT22;6820;49.374;8.452;2024-02-26T06:49:39;8.31;99.99
13496;DHT22;6820;49.374;8.452;2024-02-26T06:53:41;8.34;99.99
13496;DHT22;6820;49.374;8.452;2024-02-26T06:57:42;8.36;99.99
13496;DHT22;6820;49.374;8.452;2024-02-26T07:01:44;8.40;99.99
13496;DHT22;6820;49.374;8.452;2024-02-26T07:05:46;8.43;99.99
13496;DHT22;6820;49.374;8.452;2024-02-26T07:09:47;8.46;99.99
13496;DHT22;6820;49.374;8.452;2024-02-26T07:13:49;8.49;99.99
13496;DHT22;6820;49.374;8.452;2024-02-26T07:17:51;8.52;99.99
13496;DHT22;6820;49.374;8.452;2024-02-26T07:21:53;8.54;99.99
13496;DHT22;6820;49.374;8.452;2024-02-26T07:25:54;8.57;99.99
13496;DHT22;6820;49.374;8.452;2024-02-26T07:29:56;8.61;99.99
13496;DHT22;6820;49.374;8.452;2024-02-26T07:33:58;8.63;99.99
13496;DHT22;6820;49.374;8.452;2024-02-26T07:38:00;8.64;99.99
13496;DHT22;6820;49.374;8.452;2024-02-26T07:42:02;8.67;99.99
13496;DHT22;6820;49.374;8.452;2024-02-26T07:46:04;8.68;99.99
13496;DHT22;6820;49.374;8.452;2024-02-26T07:50:06;8.67;99.99
13496;DHT22;6820;49.374;8.452;2024-02-26T07:54:09;8.68;99.99
13496;DHT22;6820;49.374;8.452;2024-02-26T07:58:10;8.71;99.99
13496;DHT22;6820;49.374;8.452;2024-02-26T08:02:12;8.73;99.99
13496;DHT22;6820;49.374;8.452;2024-02-26T08:06:13;8.79;99.99
13496;DHT22;6820;49.374;8.452;2024-02-26T08:10:15;8.80;99.99
13496;DHT22;6820;49.374;8.452;2024-02-26T08:14:17;8.88;99.99
13496;DHT22;6820;49.374;8.452;2024-02-26T08:18:19;8.97;99.99
13496;DHT22;6820;49.374;8.452;2024-02-26T08:22:20;9.12;99.99
13496;DHT22;6820;49.374;8.452;2024-02-26T08:26:22;9.23;99.99
13496;DHT22;6820;49.374;8.452;2024-02-26T08:30:25;9.32;99.99
13496;DHT22;6820;49.374;8.452;2024-02-26T08:34:27;9.42;99.99
13496;DHT22;6820;49.374;8.452;2024-02-26T08:38:29;9.48;99.99
13496;DHT22;6820;49.374;8.452;2024-02-26T08:42:30;9.48;99.99
13496;DHT22;6820;49.374;8.452;2024-02-26T08:46:32;9.52;99.99
13496;DHT22;6820;49.374;8.452;2024-02-26T08:50:34;9.60;99.99
13496;DHT22;6820;49.374;8.452;2024-02-26T08:54:36;9.71;99.99
13496;DHT22;6820;49.374;8.452;2024-02-26T08:58:38;9.75;99.99
13496;DHT22;6820;49.374;8.452;2024-02-26T09:02:40;9.83;99.99
13496;DHT22;6820;49.374;8.452;2024-02-26T09:06:43;9.86;99.99
13496;DHT22;6820;49.374;8.452;2024-02-26T09:10:45;9.93;99.99
13496;DHT22;6820;49.374;8.452;2024-02-26T09:14:47;9.93;99.99
13496;DHT22;6820;49.374;8.452;2024-02-26T09:18:49;10.01;99.99
13496;DHT22;6820;49.374;8.452;2024-02-26T09:22:50;9.98;99.99
13496;DHT22;6820;49.374;8.452;2024-02-26T09:26:52;10.02;99.99
13496;DHT22;6820;49.374;8.452;2024-02-26T09:30:54;10.13;99.99
13496;DHT22;6820;49.374;8.452;2024-02-26T09:34:56;10.29;99.99
13496;DHT22;6820;49.374;8.452;2024-02-26T09:38:57;10.51;99.99
13496;DHT22;6820;49.374;8.452;2024-02-26T09:43:02;10.70;99.99
13496;DHT22;6820;49.374;8.452;2024-02-26T09:47:06;10.86;99.99
13496;DHT22;6820;49.374;8.452;2024-02-26T09:51:10;10.95;99.99
13496;DHT22;6820;49.374;8.452;2024-02-26T09:55:13;10.99;99.99
13496;DHT22;6820;49.374;8.452;2024-02-26T09:59:15;10.98;99.99
13496;DHT22;6820;49.374;8.452;2024-02-26T10:03:18;11.03;99.99
13496;DHT22;6820;49.374;8.452;2024-02-26T10:07:23;11.09;99.99
13496;DHT22;6820;49.374;8.452;2024-02-26T10:11:25;11.11;99.99
13496;DHT22;6820;49.374;8.452;2024-02-26T10:15:28;11.19;99.99
13496;DHT22;6820;49.374;8.452;2024-02-26T10:19:30;11.23;99.99
13496;DHT22;6820;49.374;8.452;2024-02-26T10:23:35;11.31;99.99
13496;DHT22;6820;49.374;8.452;2024-02-26T10:27:37;11.39;99.99
13496;DHT22;6820;49.374;8.452;2024-02-26T10:31:41;11.38;99.99
13496;DHT22;6820;49.374;8.452;2024-02-26T10:35:47;11.35;99.99
13496;DHT22;6820;49.374;8.452;2024-02-26T10:39:49;11.41;99.99
13496;DHT22;6820;49.374;8.452;2024-02-26T10:43:51;11.49;99.99
13496;DHT22;6820;49.374;8.452;2024-02-26T10:47:53;11.60;99.99
13496;DHT22;6820;49.374;8.452;2024-02-26T10:51:56;11.69;99.99
13496;DHT22;6820;49.374;8.452;2024-02-26T10:56:01;11.79;99.99
13496;DHT22;6820;49.374;8.452;2024-02-26T11:00:07;11.87;99.99
13496;DHT22;6820;49.374;8.452;2024-02-26T11:04:11;11.96;99.99
13496;DHT22;6820;49.374;8.452;2024-02-26T11:08:15;12.08;99.99
13496;DHT22;6820;49.374;8.452;2024-02-26T11:12:21;12.19;99.99
13496;DHT22;6820;49.374;8.452;2024-02-26T11:16:24;12.25;99.99
13496;DHT22;6820;49.374;8.452;2024-02-26T11:20:28;12.30;99.99
13496;DHT22;6820;49.374;8.452;2024-02-26T11:24:31;12.30;99.99
13496;DHT22;6820;49.374;8.452;2024-02-26T11:28:33;12.38;99.99
13496;DHT22;6820;49.374;8.452;2024-02-26T11:32:36;12.46;99.99
13496;DHT22;6820;49.374;8.452;2024-02-26T11:36:39;12.56;99.99
13496;DHT22;6820;49.374;8.452;2024-02-26T11:40:40;12.66;99.99
13496;DHT22;6820;49.374;8.452;2024-02-26T11:44:44;12.73;99.99
13496;DHT22;6820;49.374;8.452;2024-02-26T11:48:46;12.80;99.99
13496;DHT22;6820;49.374;8.452;2024-02-26T11:57:38;12.95;99.99
13496;DHT22;6820;49.374;8.452;2024-02-26T12:01:47;12.96;99.99
13496;DHT22;6820;49.374;8.452;2024-02-26T12:05:51;12.98;99.99
13496;DHT22;6820;49.374;8.452;2024-02-26T12:09:53;13.04;99.99
13496;DHT22;6820;49.374;8.452;2024-02-26T12:14:26;13.12;99.99
13496;DHT22;6820;49.374;8.452;2024-02-26T12:18:28;13.07;99.99
13496;DHT22;6820;49.374;8.452;2024-02-26T12:22:32;13.04;99.99
13496;DHT22;6820;49.374;8.452;2024-02-26T12:26:34;13.06;99.99
13496;DHT22;6820;49.374;8.452;2024-02-26T12:30:35;13.16;99.99
13496;DHT22;6820;49.374;8.452;2024-02-26T12:34:37;13.32;99.99
13496;DHT22;6820;49.374;8.452;2024-02-26T12:38:39;13.43;99.99
13496;DHT22;6820;49.374;8.452;2024-02-26T12:42:41;13.54;99.99
13496;DHT22;6820;49.374;8.452;2024-02-26T12:46:43;13.71;99.99
13496;DHT22;6820;49.374;8.452;2024-02-26T12:50:45;13.73;99.99
13496;DHT22;6820;49.374;8.452;2024-02-26T12:54:48;13.73;99.99
13496;DHT22;6820;49.374;8.452;2024-02-26T12:58:51;13.69;99.99
13496;DHT22;6820;49.374;8.452;2024-02-26T13:02:54;13.73;99.99
13496;DHT22;6820;49.374;8.452;2024-02-26T13:06:57;13.90;99.99
13496;DHT22;6820;49.374;8.452;2024-02-26T13:11:05;14.05;99.99
13496;DHT22;6820;49.374;8.452;2024-02-26T13:15:07;14.24;99.99
13496;DHT22;6820;49.374;8.452;2024-02-26T13:19:09;14.29;99.99
13496;DHT22;6820;49.374;8.452;2024-02-26T13:23:12;14.20;99.99
13496;DHT22;6820;49.374;8.452;2024-02-26T13:27:20;14.19;99.99
13496;DHT22;6820;49.374;8.452;2024-02-26T13:31:23;14.13;99.99
13496;DHT22;6820;49.374;8.452;2024-02-26T13:35:24;14.02;99.99
13496;DHT22;6820;49.374;8.452;2024-02-26T13:39:27;14.01;99.99
13496;DHT22;6820;49.374;8.452;2024-02-26T13:43:29;14.06;99.99
13496;DHT22;6820;49.374;8.452;2024-02-26T13:47:31;14.19;99.99
13496;DHT22;6820;49.374;8.452;2024-02-26T13:51:34;14.24;99.99
13496;DHT22;6820;49.374;8.452;2024-02-26T13:55:37;14.49;99.99
13496;DHT22;6820;49.374;8.452;2024-02-26T13:59:39;14.60;99.99
13496;DHT22;6820;49.374;8.452;2024-02-26T14:03:43;14.64;99.99
13496;DHT22;6820;49.374;8.452;2024-02-26T14:07:45;14.80;99.99
13496;DHT22;6820;49.374;8.452;2024-02-26T14:11:51;14.93;99.99
13496;DHT22;6820;49.374;8.452;2024-02-26T14:15:53;14.87;99.99
13496;DHT22;6820;49.374;8.452;2024-02-26T14:19:55;15.03;99.99
13496;DHT22;6820;49.374;8.452;2024-02-26T14:23:56;15.16;99.99
13496;DHT22;6820;49.374;8.452;2024-02-26T14:27:58;15.46;99.99
13496;DHT22;6820;49.374;8.452;2024-02-26T14:32:00;15.62;99.99
13496;DHT22;6820;49.374;8.452;2024-02-26T14:36:02;15.77;99.99
13496;DHT22;6820;49.374;8.452;2024-02-26T14:40:04;15.74;99.99
13496;DHT22;6820;49.374;8.452;2024-02-26T14:44:07;15.66;99.99
13496;DHT22;6820;49.374;8.452;2024-02-26T14:48:09;15.60;99.99
13496;DHT22;6820;49.374;8.452;2024-02-26T14:52:12;15.59;99.99
13496;DHT22;6820;49.374;8.452;2024-02-26T14:56:15;15.51;99.99
13496;DHT22;6820;49.374;8.452;2024-02-26T15:00:16;15.25;99.99
13496;DHT22;6820;49.374;8.452;2024-02-26T15:04:18;15.01;99.99
13496;DHT22;6820;49.374;8.452;2024-02-26T15:08:20;14.85;99.99
13496;DHT22;6820;49.374;8.452;2024-02-26T15:12:22;14.67;99.99
13496;DHT22;6820;49.374;8.452;2024-02-26T15:16:32;14.53;99.99
13496;DHT22;6820;49.374;8.452;2024-02-26T15:20:34;14.49;99.99
13496;DHT22;6820;49.374;8.452;2024-02-26T15:24:35;14.54;99.99
13496;DHT22;6820;49.374;8.452;2024-02-26T15:28:39;14.60;99.99
13496;DHT22;6820;49.374;8.452;2024-02-26T15:32:41;14.67;99.99
13496;DHT22;6820;49.374;8.452;2024-02-26T15:36:44;14.66;99.99
13496;DHT22;6820;49.374;8.452;2024-02-26T15:40:46;14.80;99.99
13496;DHT22;6820;49.374;8.452;2024-02-26T15:44:48;14.82;99.99
13496;DHT22;6820;49.374;8.452;2024-02-26T15:48:50;14.72;99.99
13496;DHT22;6820;49.374;8.452;2024-02-26T15:52:52;14.61;99.99
13496;DHT22;6820;49.374;8.452;2024-02-26T15:56:54;14.57;99.99
13496;DHT22;6820;49.374;8.452;2024-02-26T16:00:56;14.56;99.99
13496;DHT22;6820;49.374;8.452;2024-02-26T16:05:10;14.52;99.99
13496;DHT22;6820;49.374;8.452;2024-02-26T16:09:14;14.42;99.99
13496;DHT22;6820;49.374;8.452;2024-02-26T16:13:16;14.34;99.99
13496;DHT22;6820;49.374;8.452;2024-02-26T16:17:28;14.21;99.99
13496;DHT22;6820;49.374;8.452;2024-02-26T16:21:35;14.09;99.99
13496;DHT22;6820;49.374;8.452;2024-02-26T16:25:37;13.99;99.99
13496;DHT22;6820;49.374;8.452;2024-02-26T16:29:39;13.87;99.99
13496;DHT22;6820;49.374;8.452;2024-02-26T16:33:40;13.76;99.99
13496;DHT22;6820;49.374;8.452;2024-02-26T16:37:42;13.61;99.99
13496;DHT22;6820;49.374;8.452;2024-02-26T16:41:44;13.47;99.99
13496;DHT22;6820;49.374;8.452;2024-02-26T16:45:45;13.38;99.99
13496;DHT22;6820;49.374;8.452;2024-02-26T16:49:49;13.27;99.99
13496;DHT22;6820;49.374;8.452;2024-02-26T16:53:51;13.19;99.99
13496;DHT22;6820;49.374;8.452;2024-02-26T16:57:53;13.12;99.99
13496;DHT22;6820;49.374;8.452;2024-02-26T17:01:55;13.06;99.99
13496;DHT22;6820;49.374;8.452;2024-02-26T17:05:57;12.98;99.99
13496;DHT22;6820;49.374;8.452;2024-02-26T17:10:00;12.92;99.99
13496;DHT22;6820;49.374;8.452;2024-02-26T17:14:02;12.85;99.99
13496;DHT22;6820;49.374;8.452;2024-02-26T17:18:04;12.77;99.99
13496;DHT22;6820;49.374;8.452;2024-02-26T17:22:13;12.71;99.99
13496;DHT22;6820;49.374;8.452;2024-02-26T17:26:21;12.63;99.99
13496;DHT22;6820;49.374;8.452;2024-02-26T17:30:25;12.58;99.99
13496;DHT22;6820;49.374;8.452;2024-02-26T17:34:27;12.55;99.99
13496;DHT22;6820;49.374;8.452;2024-02-26T17:38:28;12.54;99.99
13496;DHT22;6820;49.374;8.452;2024-02-26T17:42:30;12.51;99.99
13496;DHT22;6820;49.374;8.452;2024-02-26T17:46:32;12.48;99.99
13496;DHT22;6820;49.374;8.452;2024-02-26T17:50:37;12.46;99.99
13496;DHT22;6820;49.374;8.452;2024-02-26T17:54:39;12.44;99.99
13496;DHT22;6820;49.374;8.452;2024-02-26T17:58:41;12.38;99.99
13496;DHT22;6820;49.374;8.452;2024-02-26T18:02:43;12.37;99.99
13496;DHT22;6820;49.374;8.452;2024-02-26T18:06:45;12.36;99.99
13496;DHT22;6820;49.374;8.452;2024-02-26T18:10:50;12.34;99.99
13496;DHT22;6820;49.374;8.452;2024-02-26T18:14:51;12.33;99.99
13496;DHT22;6820;49.374;8.452;2024-02-26T18:18:53;12.33;99.99
13496;DHT22;6820;49.374;8.452;2024-02-26T18:22:55;12.33;99.99
13496;DHT22;6820;49.374;8.452;2024-02-26T18:26:57;12.31;99.99
13496;DHT22;6820;49.374;8.452;2024-02-26T18:31:01;12.31;99.99
13496;DHT22;6820;49.374;8.452;2024-02-26T18:35:03;12.30;99.99
13496;DHT22;6820;49.374;8.452;2024-02-26T18:39:06;12.29;99.99
13496;DHT22;6820;49.374;8.452;2024-02-26T18:43:10;12.26;99.99
13496;DHT22;6820;49.374;8.452;2024-02-26T18:47:13;12.25;99.99
13496;DHT22;6820;49.374;8.452;2024-02-26T18:51:14;12.23;99.99
13496;DHT22;6820;49.374;8.452;2024-02-26T18:55:16;12.19;99.99
13496;DHT22;6820;49.374;8.452;2024-02-26T18:59:18;12.21;99.99
13496;DHT22;6820;49.374;8.452;2024-02-26T19:03:20;12.18;99.99
13496;DHT22;6820;49.374;8.452;2024-02-26T19:07:22;12.16;99.99
13496;DHT22;6820;49.374;8.452;2024-02-26T19:11:25;12.15;99.99
13496;DHT22;6820;49.374;8.452;2024-02-26T19:15:26;12.15;99.99
13496;DHT22;6820;49.374;8.452;2024-02-26T19:19:29;12.15;99.99
13496;DHT22;6820;49.374;8.452;2024-02-26T19:23:31;12.07;99.99
13496;DHT22;6820;49.374;8.452;2024-02-26T19:27:35;12.03;99.99
13496;DHT22;6820;49.374;8.452;2024-02-26T19:31:36;12.00;99.99
13496;DHT22;6820;49.374;8.452;2024-02-26T19:35:39;12.00;99.99
13496;DHT22;6820;49.374;8.452;2024-02-26T19:39:40;11.96;99.99
13496;DHT22;6820;49.374;8.452;2024-02-26T19:43:42;11.90;99.99
13496;DHT22;6820;49.374;8.452;2024-02-26T19:47:44;11.88;99.99
13496;DHT22;6820;49.374;8.452;2024-02-26T19:51:48;11.85;99.99
13496;DHT22;6820;49.374;8.452;2024-02-26T19:55:50;11.79;99.99
13496;DHT22;6820;49.374;8.452;2024-02-26T19:59:52;11.75;99.99
13496;DHT22;6820;49.374;8.452;2024-02-26T20:03:54;11.75;99.99
13496;DHT22;6820;49.374;8.452;2024-02-26T20:07:56;11.72;99.99
13496;DHT22;6820;49.374;8.452;2024-02-26T20:11:58;11.70;99.99
13496;DHT22;6820;49.374;8.452;2024-02-26T20:16:02;11.69;99.99
13496;DHT22;6820;49.374;8.452;2024-02-26T20:20:05;11.67;99.99
13496;DHT22;6820;49.374;8.452;2024-02-26T20:24:08;11.66;99.99
13496;DHT22;6820;49.374;8.452;2024-02-26T20:28:10;11.67;99.99
13496;DHT22;6820;49.374;8.452;2024-02-26T20:32:12;11.66;99.99
13496;DHT22;6820;49.374;8.452;2024-02-26T20:36:13;11.64;99.99
13496;DHT22;6820;49.374;8.452;2024-02-26T20:40:15;11.63;99.99
13496;DHT22;6820;49.374;8.452;2024-02-26T20:44:21;11.64;99.99
13496;DHT22;6820;49.374;8.452;2024-02-26T20:48:23;11.62;99.99
13496;DHT22;6820;49.374;8.452;2024-02-26T20:52:26;11.59;99.99
13496;DHT22;6820;49.374;8.452;2024-02-26T20:56:28;11.57;99.99
13496;DHT22;6820;49.374;8.452;2024-02-26T21:00:30;11.53;99.99
13496;DHT22;6820;49.374;8.452;2024-02-26T21:04:31;11.48;99.99
13496;DHT22;6820;49.374;8.452;2024-02-26T21:08:34;11.41;99.99
13496;DHT22;6820;49.374;8.452;2024-02-26T21:12:38;11.36;99.99
13496;DHT22;6820;49.374;8.452;2024-02-26T21:16:40;11.31;99.99
13496;DHT22;6820;49.374;8.452;2024-02-26T21:20:42;11.24;99.99
13496;DHT22;6820;49.374;8.452;2024-02-26T21:24:43;11.21;99.99
13496;DHT22;6820;49.374;8.452;2024-02-26T21:28:45;11.19;99.99
13496;DHT22;6820;49.374;8.452;2024-02-26T21:32:47;11.17;99.99
13496;DHT22;6820;49.374;8.452;2024-02-26T21:36:49;11.20;99.99
13496;DHT22;6820;49.374;8.452;2024-02-26T21:40:50;11.21;99.99
13496;DHT22;6820;49.374;8.452;2024-02-26T21:44:52;11.21;99.99
13496;DHT22;6820;49.374;8.452;2024-02-26T21:48:54;11.23;99.99
13496;DHT22;6820;49.374;8.452;2024-02-26T21:52:55;11.20;99.99
13496;DHT22;6820;49.374;8.452;2024-02-26T21:56:57;11.12;99.99
13496;DHT22;6820;49.374;8.452;2024-02-26T22:00:59;11.08;99.99
13496;DHT22;6820;49.374;8.452;2024-02-26T22:05:01;10.99;99.99
13496;DHT22;6820;49.374;8.452;2024-02-26T22:09:03;10.93;99.99
13496;DHT22;6820;49.374;8.452;2024-02-26T22:13:05;10.91;99.99
13496;DHT22;6820;49.374;8.452;2024-02-26T22:17:07;10.93;99.99
13496;DHT22;6820;49.374;8.452;2024-02-26T22:21:08;11.01;99.99
13496;DHT22;6820;49.374;8.452;2024-02-26T22:25:10;11.01;99.99
13496;DHT22;6820;49.374;8.452;2024-02-26T22:29:12;11.05;99.99
13496;DHT22;6820;49.374;8.452;2024-02-26T22:33:14;11.05;99.99
13496;DHT22;6820;49.374;8.452;2024-02-26T22:37:16;11.02;99.99
13496;DHT22;6820;49.374;8.452;2024-02-26T22:41:18;11.02;99.99
13496;DHT22;6820;49.374;8.452;2024-02-26T22:45:19;10.99;99.99
13496;DHT22;6820;49.374;8.452;2024-02-26T22:49:21;10.99;99.99
13496;DHT22;6820;49.374;8.452;2024-02-26T22:53:23;10.93;99.99
13496;DHT22;6820;49.374;8.452;2024-02-26T22:57:25;10.90;99.99
13496;DHT22;6820;49.374;8.452;2024-02-26T23:01:26;10.88;99.99
13496;DHT22;6820;49.374;8.452;2024-02-26T23:05:28;10.84;99.99
13496;DHT22;6820;49.374;8.452;2024-02-26T23:09:31;10.78;99.99
13496;DHT22;6820;49.374;8.452;2024-02-26T23:13:32;10.69;99.99
13496;DHT22;6820;49.374;8.452;2024-02-26T23:17:34;10.60;99.99
13496;DHT22;6820;49.374;8.452;2024-02-26T23:21:36;10.52;99.99
13496;DHT22;6820;49.374;8.452;2024-02-26T23:25:40;10.44;99.99
13496;DHT22;6820;49.374;8.452;2024-02-26T23:29:41;10.42;99.99
13496;DHT22;6820;49.374;8.452;2024-02-26T23:33:43;10.29;99.99
13496;DHT22;6820;49.374;8.452;2024-02-26T23:37:45;10.25;99.99
13496;DHT22;6820;49.374;8.452;2024-02-26T23:41:47;10.18;99.99
13496;DHT22;6820;49.374;8.452;2024-02-26T23:45:48;10.16;99.99
13496;DHT22;6820;49.374;8.452;2024-02-26T23:49:50;10.14;99.99
13496;DHT22;6820;49.374;8.452;2024-02-26T23:53:52;10.16;99.99
13496;DHT22;6820;49.374;8.452;2024-02-26T23:57:54;10.17;99.99
